Time;durP1;ratioP1;P1;durP2;ratioP2;P2;SDS_P1;SDS_P2;PMS_P1;PMS_P2;Temp;Humidity;BMP_temperature;BMP_pressure;BME280_temperature;BME280_humidity;BME280_pressure;Samples;Min_cycle;Max_cycle;Signal;HPM_P1;HPM_P2
2023/01/19 00:02:25;;;;;;;6.75;1.90;;;2.20;77.00;;;;;;4986404;28;87481;-73
2023/01/19 00:04:51;;;;;;;5.13;1.70;;;2.10;77.90;;;;;;4998585;28;88281;-74
2023/01/19 00:07:16;;;;;;;4.93;2.33;;;2.10;78.40;;;;;;4997825;28;88336;-74
2023/01/19 00:09:42;;;;;;;6.45;2.90;;;2.00;79.00;;;;;;4977118;28;87475;-74
2023/01/19 00:12:08;;;;;;;5.18;2.60;;;2.00;79.60;;;;;;4977085;28;87342;-74
2023/01/19 00:14:34;;;;;;;7.88;2.38;;;2.00;80.00;;;;;;4976145;28;89166;-75
2023/01/19 00:17:00;;;;;;;4.72;2.05;;;2.00;80.00;;;;;;4975858;28;87487;-72
2023/01/19 00:19:27;;;;;;;6.00;2.40;;;2.00;80.30;;;;;;4979097;28;87413;-72
2023/01/19 00:21:52;;;;;;;6.07;2.33;;;2.00;81.20;;;;;;4978695;28;87307;-72
2023/01/19 00:24:18;;;;;;;6.40;2.22;;;2.00;78.80;;;;;;4987422;28;87230;-72
2023/01/19 00:26:44;;;;;;;6.10;2.20;;;2.00;79.50;;;;;;4989690;28;87643;-71
2023/01/19 00:29:10;;;;;;;6.10;2.13;;;1.90;79.30;;;;;;4993349;28;87392;-73
2023/01/19 00:31:36;;;;;;;5.80;2.10;;;1.90;79.50;;;;;;4986629;28;86719;-72
2023/01/19 00:34:03;;;;;;;6.28;1.98;;;1.90;79.60;;;;;;4982725;28;87667;-72
2023/01/19 00:36:29;;;;;;;4.85;1.95;;;1.90;79.60;;;;;;4977598;28;88010;-72
2023/01/19 00:38:55;;;;;;;4.47;1.98;;;1.90;78.60;;;;;;4978838;28;88036;-72
2023/01/19 00:42:38;;;;;;;5.65;2.20;;;1.90;79.10;;;;;;4988940;28;87191;-72
2023/01/19 00:44:06;;;;;;;5.20;1.85;;;1.90;79.80;;;;;;4988760;28;88767;-72
2023/01/19 00:46:32;;;;;;;6.72;1.67;;;1.90;80.50;;;;;;4978326;28;89197;-73
2023/01/19 00:48:57;;;;;;;5.03;2.15;;;1.80;80.10;;;;;;4976772;28;87383;-71
2023/01/19 00:51:24;;;;;;;4.80;2.17;;;1.80;80.90;;;;;;4979194;28;87344;-72
2023/01/19 00:53:50;;;;;;;6.68;2.40;;;1.80;81.30;;;;;;4979420;28;87260;-71
2023/01/19 00:56:17;;;;;;;6.35;2.42;;;1.90;81.30;;;;;;4977016;28;86929;-73
2023/01/19 00:58:44;;;;;;;5.15;2.10;;;2.00;81.00;;;;;;4976513;28;87352;-72
2023/01/19 01:01:10;;;;;;;5.97;2.42;;;2.00;80.70;;;;;;4978323;28;87585;-72
2023/01/19 01:03:36;;;;;;;7.53;2.08;;;2.00;80.80;;;;;;4974368;28;89577;-73
2023/01/19 01:06:02;;;;;;;6.50;2.10;;;2.00;79.90;;;;;;4969469;28;89391;-72
2023/01/19 01:08:29;;;;;;;4.65;2.25;;;2.00;80.10;;;;;;4988255;28;87826;-72
2023/01/19 01:10:55;;;;;;;5.70;2.20;;;2.00;80.10;;;;;;4973253;28;87096;-72
2023/01/19 01:13:20;;;;;;;5.82;2.13;;;2.00;79.10;;;;;;4978295;28;87582;-72
2023/01/19 01:15:52;;;;;;;4.60;1.67;;;1.90;79.40;;;;;;4976466;28;87184;-72
2023/01/19 01:18:18;;;;;;;5.60;1.98;;;1.90;79.60;;;;;;4966201;28;88435;-72
2023/01/19 01:20:43;;;;;;;4.53;2.00;;;1.90;79.60;;;;;;4965173;28;86720;-72
2023/01/19 01:23:09;;;;;;;7.30;2.30;;;2.00;79.40;;;;;;4970848;28;87661;-72
2023/01/19 01:25:36;;;;;;;5.28;1.95;;;2.00;78.50;;;;;;4966132;28;87793;-72
2023/01/19 01:28:07;;;;;;;5.80;2.28;;;2.00;79.30;;;;;;4968016;28;89332;-71
2023/01/19 01:30:34;;;;;;;5.10;2.10;;;1.90;78.90;;;;;;4968436;28;87760;-72
2023/01/19 01:33:00;;;;;;;6.38;2.00;;;2.00;78.70;;;;;;4964739;28;88132;-72
2023/01/19 01:35:26;;;;;;;6.18;1.58;;;2.00;79.00;;;;;;4966712;28;88019;-72
2023/01/19 01:37:56;;;;;;;6.80;2.20;;;2.00;79.80;;;;;;4965296;28;87576;-72
2023/01/19 01:40:22;;;;;;;6.78;2.35;;;2.00;79.80;;;;;;4966430;28;89621;-72
2023/01/19 01:42:47;;;;;;;7.65;2.28;;;2.00;79.70;;;;;;4965045;28;89096;-72
2023/01/19 01:45:26;;;;;;;6.18;2.13;;;2.00;79.90;;;;;;4968289;28;87969;-72
2023/01/19 01:47:56;;;;;;;5.45;1.75;;;2.00;80.10;;;;;;4964651;28;87833;-73
2023/01/19 01:50:25;;;;;;;5.15;2.13;;;2.10;80.40;;;;;;4966136;28;89113;-71
2023/01/19 01:53:04;;;;;;;7.10;2.38;;;2.10;79.80;;;;;;4969432;28;89070;-71
2023/01/19 01:55:31;;;;;;;5.38;2.28;;;2.20;79.90;;;;;;4969086;28;90471;-71
2023/01/19 01:58:01;;;;;;;5.60;2.22;;;2.20;79.50;;;;;;4970228;28;89361;-71
2023/01/19 02:02:49;;;;;;;6.68;2.40;;;2.20;79.80;;;;;;4962110;28;87524;-72
2023/01/19 02:03:14;;;;;;;8.10;2.80;;;2.20;80.40;;;;;;4967104;28;87851;-73
2023/01/19 02:05:40;;;;;;;7.57;3.13;;;2.20;80.60;;;;;;4967160;28;87607;-73
2023/01/19 02:13:43;;;;;;;7.57;3.60;;;2.20;81.50;;;;;;4970125;28;88984;-73
2023/01/19 02:16:11;;;;;;;8.73;3.70;;;2.20;81.70;;;;;;4972325;28;87416;-73
2023/01/19 02:18:37;;;;;;;8.85;3.22;;;2.20;81.60;;;;;;4966575;28;88859;-73
2023/01/19 02:21:24;;;;;;;7.45;3.58;;;2.20;82.40;;;;;;4969598;28;88611;-72
2023/01/19 02:23:55;;;;;;;9.40;4.22;;;2.20;82.30;;;;;;4966109;28;87530;-73
2023/01/19 02:26:22;;;;;;;;;;;2.20;82.30;;;;;;4970474;28;89229;-72
2023/01/19 02:29:07;;;;;;;11.52;4.57;;;2.20;82.10;;;;;;4970102;28;87902;-72
2023/01/19 02:31:36;;;;;;;11.32;4.50;;;2.20;82.00;;;;;;4970659;28;88051;-72
2023/01/19 02:34:03;;;;;;;10.57;4.53;;;2.10;81.90;;;;;;4969042;28;87712;-72
2023/01/19 02:36:54;;;;;;;10.88;4.38;;;2.10;81.90;;;;;;4969550;28;88245;-73
2023/01/19 02:39:32;;;;;;;8.43;4.22;;;2.20;81.80;;;;;;4962078;28;87667;-73
2023/01/19 02:42:02;;;;;;;8.77;4.30;;;2.20;81.60;;;;;;4969285;28;89556;-73
2023/01/19 02:44:29;;;;;;;10.25;4.55;;;2.10;81.70;;;;;;4972104;28;90513;-72
2023/01/19 02:46:55;;;;;;;9.80;4.88;;;2.10;81.50;;;;;;4961156;28;88303;-73
2023/01/19 02:49:22;;;;;;;11.20;4.80;;;2.10;81.30;;;;;;4973636;28;87026;-73
2023/01/19 02:51:48;;;;;;;9.63;4.45;;;2.10;80.70;;;;;;4969433;28;88934;-71
2023/01/19 02:54:45;;;;;;;11.40;4.60;;;2.00;80.60;;;;;;4969016;28;88836;-70
2023/01/19 02:57:17;;;;;;;9.20;4.68;;;2.00;80.30;;;;;;4970769;28;87509;-71
2023/01/19 03:00:08;;;;;;;10.32;4.93;;;1.90;80.20;;;;;;4976432;28;87462;-70
2023/01/19 03:02:51;;;;;;;10.82;4.63;;;1.90;80.10;;;;;;4967782;28;86865;-71
2023/01/19 03:05:55;;;;;;;10.75;4.30;;;1.80;80.00;;;;;;4969752;28;88372;-71
2023/01/19 03:08:43;;;;;;;9.50;4.60;;;1.60;80.20;;;;;;4966316;28;88000;-70
2023/01/19 03:11:11;;;;;;;7.95;3.85;;;1.50;80.70;;;;;;4966299;28;88583;-72
2023/01/19 03:13:51;;;;;;;11.80;4.13;;;1.40;81.20;;;;;;4971222;28;87735;-70
2023/01/19 03:16:40;;;;;;;10.40;4.70;;;1.30;81.90;;;;;;4974072;28;87693;-71
2023/01/19 03:19:25;;;;;;;12.80;4.78;;;1.30;82.20;;;;;;4973942;28;88279;-73
2023/01/19 03:21:56;;;;;;;12.70;4.75;;;1.20;82.40;;;;;;4971578;28;87578;-74
2023/01/19 03:24:24;;;;;;;9.80;4.10;;;1.10;83.30;;;;;;4969357;28;87408;-70
2023/01/19 03:27:21;;;;;;;12.07;4.78;;;1.00;83.90;;;;;;4965291;28;87966;-71
2023/01/19 03:29:54;;;;;;;13.88;4.70;;;1.00;83.80;;;;;;4969689;28;89083;-72
2023/01/19 03:32:28;;;;;;;11.55;4.70;;;1.00;84.20;;;;;;4967391;28;87236;-72
2023/01/19 03:34:55;;;;;;;10.50;4.88;;;1.00;84.20;;;;;;4965767;28;87186;-71
2023/01/19 03:37:23;;;;;;;9.95;4.10;;;1.00;83.50;;;;;;4970011;28;89284;-73
2023/01/19 03:39:49;;;;;;;11.38;4.32;;;1.10;82.70;;;;;;4964717;28;89343;-73
2023/01/19 03:42:16;;;;;;;11.70;4.88;;;1.20;82.70;;;;;;4969039;28;87558;-71
2023/01/19 03:44:44;;;;;;;11.48;4.70;;;1.20;82.70;;;;;;4972155;28;87939;-73
2023/01/19 03:47:12;;;;;;;13.10;4.72;;;1.20;82.80;;;;;;4963204;28;90601;-71
2023/01/19 03:49:40;;;;;;;10.75;4.75;;;1.20;83.10;;;;;;4966588;28;87562;-70
2023/01/19 03:52:06;;;;;;;11.93;4.15;;;1.20;83.60;;;;;;4968688;28;87714;-71
2023/01/19 03:54:31;;;;;;;13.30;4.68;;;1.20;83.10;;;;;;4968015;28;86373;-70
2023/01/19 03:56:57;;;;;;;10.90;3.92;;;1.20;82.70;;;;;;4964864;28;89453;-70
2023/01/19 03:59:23;;;;;;;8.75;3.80;;;1.20;82.90;;;;;;4973424;28;88382;-72
2023/01/19 04:01:48;;;;;;;8.50;3.92;;;1.10;82.40;;;;;;4973365;28;88488;-72
2023/01/19 04:04:14;;;;;;;7.78;3.63;;;1.10;82.00;;;;;;4968884;28;87477;-73
2023/01/19 04:06:41;;;;;;;8.68;4.13;;;1.10;81.70;;;;;;4964733;28;87846;-73
2023/01/19 04:09:07;;;;;;;8.65;3.78;;;1.00;81.30;;;;;;4967243;28;87244;-74
2023/01/19 04:11:33;;;;;;;9.13;4.00;;;0.90;81.30;;;;;;4969679;28;87234;-73
2023/01/19 04:13:58;;;;;;;8.40;3.30;;;0.90;81.50;;;;;;4968495;28;88966;-73
2023/01/19 04:16:24;;;;;;;10.93;3.85;;;0.80;81.70;;;;;;4972579;28;87715;-73
2023/01/19 04:18:51;;;;;;;8.90;4.22;;;0.80;81.80;;;;;;4972637;28;88227;-74
2023/01/19 04:21:19;;;;;;;11.15;4.68;;;0.80;81.70;;;;;;4969730;28;87741;-72
2023/01/19 04:23:45;;;;;;;13.80;4.97;;;0.90;81.70;;;;;;4970303;28;87244;-72
2023/01/19 04:26:11;;;;;;;12.98;4.80;;;0.90;81.70;;;;;;4970508;28;88871;-72
2023/01/19 04:28:37;;;;;;;11.95;4.90;;;0.90;81.50;;;;;;4965249;28;89032;-72
2023/01/19 04:31:05;;;;;;;9.57;3.92;;;0.90;81.40;;;;;;4967551;28;87604;-74
2023/01/19 04:33:30;;;;;;;10.80;4.55;;;0.90;82.10;;;;;;4969467;28;87632;-71
2023/01/19 04:35:56;;;;;;;10.38;4.65;;;0.90;81.80;;;;;;4967825;28;89195;-70
2023/01/19 04:38:24;;;;;;;12.48;4.18;;;0.90;81.90;;;;;;4964805;28;89302;-70
2023/01/19 04:40:51;;;;;;;10.40;4.47;;;0.90;81.70;;;;;;4975221;28;87432;-73
2023/01/19 04:43:17;;;;;;;11.55;4.53;;;0.90;81.60;;;;;;4965561;28;86979;-72
2023/01/19 04:45:44;;;;;;;10.85;4.25;;;0.90;81.60;;;;;;4960143;28;89239;-74
2023/01/19 04:48:10;;;;;;;9.88;4.05;;;0.90;81.80;;;;;;4966834;28;87457;-73
2023/01/19 04:50:37;;;;;;;9.27;4.32;;;0.90;82.20;;;;;;4983617;28;88294;-73
2023/01/19 04:53:02;;;;;;;8.55;4.18;;;0.90;81.90;;;;;;4980128;28;87398;-72
2023/01/19 04:55:28;;;;;;;8.65;4.45;;;0.90;81.90;;;;;;4975044;28;88701;-72
2023/01/19 04:57:54;;;;;;;9.77;4.40;;;0.90;81.70;;;;;;4976628;28;87587;-73
2023/01/19 05:00:20;;;;;;;9.30;4.30;;;0.80;81.90;;;;;;4976336;28;87376;-72
2023/01/19 05:02:46;;;;;;;9.88;4.05;;;0.80;81.70;;;;;;4962459;28;87359;-71
2023/01/19 05:05:12;;;;;;;9.18;4.38;;;0.80;82.00;;;;;;4974833;28;87322;-72
2023/01/19 05:07:38;;;;;;;7.90;3.45;;;0.90;81.50;;;;;;4978562;28;88044;-72
2023/01/19 05:10:05;;;;;;;8.65;4.00;;;0.90;81.20;;;;;;4971992;28;87377;-72
2023/01/19 05:12:32;;;;;;;9.60;4.18;;;0.90;81.30;;;;;;4978509;28;87108;-73
2023/01/19 05:14:58;;;;;;;7.93;4.10;;;0.90;81.10;;;;;;4984234;28;88735;-72
2023/01/19 05:17:23;;;;;;;8.43;3.72;;;0.70;81.10;;;;;;4982895;28;88753;-72
2023/01/19 05:19:49;;;;;;;9.23;3.67;;;0.70;80.50;;;;;;4981741;28;87441;-71
2023/01/19 05:22:15;;;;;;;8.73;3.85;;;0.70;80.60;;;;;;4971337;28;87557;-72
2023/01/19 05:24:41;;;;;;;12.05;4.35;;;0.70;80.80;;;;;;4983801;28;87567;-72
2023/01/19 05:27:06;;;;;;;10.10;4.28;;;0.60;81.40;;;;;;4998178;28;87907;-71
2023/01/19 05:29:33;;;;;;;8.63;3.80;;;0.50;82.00;;;;;;4997963;28;87257;-70
2023/01/19 05:31:59;;;;;;;10.43;4.35;;;0.50;82.30;;;;;;4997934;28;86667;-70
2023/01/19 05:34:24;;;;;;;10.43;4.15;;;0.50;82.50;;;;;;4987659;28;87440;-72
2023/01/19 05:36:50;;;;;;;9.50;4.40;;;0.50;82.70;;;;;;4965700;28;87876;-70
2023/01/19 05:39:16;;;;;;;8.65;4.00;;;0.50;82.90;;;;;;4971411;28;89797;-70
2023/01/19 05:41:44;;;;;;;9.88;3.88;;;0.50;82.90;;;;;;4973262;28;87150;-71
2023/01/19 05:44:10;;;;;;;9.52;4.28;;;0.40;82.80;;;;;;4969743;28;87668;-71
2023/01/19 05:46:35;;;;;;;11.18;4.00;;;0.40;82.80;;;;;;4967187;28;87377;-73
2023/01/19 05:49:03;;;;;;;10.77;3.67;;;0.50;83.20;;;;;;4975174;28;87317;-72
2023/01/19 05:51:36;;;;;;;12.13;3.80;;;0.50;82.80;;;;;;4974309;28;88731;-71
2023/01/19 05:54:05;;;;;;;8.63;3.90;;;0.60;82.30;;;;;;4974028;28;87914;-75
2023/01/19 05:56:31;;;;;;;9.73;4.35;;;0.70;82.50;;;;;;4969197;28;87364;-71
2023/01/19 05:58:58;;;;;;;8.50;3.83;;;0.70;83.00;;;;;;4973583;28;87368;-72
2023/01/19 06:01:24;;;;;;;10.93;4.07;;;0.80;82.80;;;;;;4966718;28;89404;-71
2023/01/19 06:03:50;;;;;;;9.52;4.13;;;0.90;81.90;;;;;;4977997;28;88631;-71
2023/01/19 06:06:16;;;;;;;10.32;4.10;;;0.90;81.90;;;;;;4980956;28;88336;-73
2023/01/19 06:08:41;;;;;;;11.63;3.83;;;0.90;81.80;;;;;;4967243;28;89417;-74
2023/01/19 06:11:07;;;;;;;8.10;3.72;;;0.80;82.10;;;;;;4964898;28;88595;-72
2023/01/19 06:13:34;;;;;;;9.70;3.80;;;0.80;82.60;;;;;;4964376;28;88979;-72
2023/01/19 06:16:01;;;;;;;7.50;3.00;;;0.80;82.90;;;;;;4958483;28;87922;-71
2023/01/19 06:18:29;;;;;;;9.20;3.88;;;0.80;82.70;;;;;;4965424;28;87969;-72
2023/01/19 06:20:57;;;;;;;8.75;3.70;;;0.80;83.30;;;;;;4963944;28;86813;-73
2023/01/19 06:23:31;;;;;;;11.45;4.60;;;0.70;82.70;;;;;;4966324;28;88237;-75
2023/01/19 06:25:57;;;;;;;9.73;3.97;;;0.70;82.90;;;;;;4966495;28;87489;-74
2023/01/19 06:28:24;;;;;;;10.35;3.70;;;0.70;83.00;;;;;;4967858;28;88444;-74
2023/01/19 06:30:50;;;;;;;8.02;3.85;;;0.70;82.60;;;;;;4967462;28;87622;-74
2023/01/19 06:33:17;;;;;;;8.13;3.78;;;0.80;82.80;;;;;;4972655;28;87570;-74
2023/01/19 06:35:47;;;;;;;8.55;3.60;;;0.80;82.60;;;;;;4962068;28;87852;-73
2023/01/19 06:38:13;;;;;;;10.75;4.15;;;0.80;82.90;;;;;;4967882;28;87480;-73
2023/01/19 06:40:41;;;;;;;8.82;3.83;;;0.80;82.90;;;;;;4966510;28;88596;-73
2023/01/19 06:43:07;;;;;;;10.52;3.60;;;0.90;83.10;;;;;;4956809;28;90286;-73
2023/01/19 06:45:33;;;;;;;11.13;4.78;;;0.90;82.80;;;;;;4963549;28;87926;-72
2023/01/19 06:47:59;;;;;;;8.20;3.80;;;0.90;82.60;;;;;;4962934;28;89129;-74
2023/01/19 06:50:25;;;;;;;8.50;3.80;;;0.70;83.30;;;;;;4959654;28;88610;-73
2023/01/19 06:52:51;;;;;;;10.35;3.90;;;0.60;83.20;;;;;;4960204;28;89286;-73
2023/01/19 06:55:17;;;;;;;8.23;3.25;;;0.60;83.60;;;;;;4957728;28;88953;-73
2023/01/19 06:57:43;;;;;;;10.50;4.22;;;0.50;83.30;;;;;;4967636;28;88341;-73
2023/01/19 07:00:11;;;;;;;7.93;3.80;;;0.50;83.40;;;;;;4969123;28;87638;-73
2023/01/19 07:02:41;;;;;;;8.68;3.58;;;0.40;83.00;;;;;;4971320;28;88167;-73
2023/01/19 07:05:08;;;;;;;10.10;3.78;;;0.30;82.80;;;;;;4974153;28;87352;-73
2023/01/19 07:07:34;;;;;;;8.05;3.63;;;0.20;83.20;;;;;;4974991;28;88578;-71
2023/01/19 07:10:00;;;;;;;9.05;3.80;;;0.20;83.10;;;;;;4970798;28;86325;-72
2023/01/19 07:12:26;;;;;;;9.93;3.35;;;0.20;83.90;;;;;;4976395;28;87795;-72
2023/01/19 07:14:51;;;;;;;11.05;3.30;;;0.20;83.30;;;;;;4981960;28;87903;-73
2023/01/19 07:17:18;;;;;;;10.10;4.05;;;0.20;82.80;;;;;;4973721;28;89365;-73
2023/01/19 07:19:45;;;;;;;10.43;3.78;;;0.20;83.10;;;;;;4978566;28;87277;-74
2023/01/19 07:22:11;;;;;;;10.60;4.00;;;0.20;82.90;;;;;;4980247;28;88216;-72
2023/01/19 07:24:36;;;;;;;9.48;3.72;;;0.20;83.30;;;;;;4976138;28;88081;-73
2023/01/19 07:27:03;;;;;;;11.35;4.47;;;0.20;83.40;;;;;;4979488;28;87343;-72
2023/01/19 07:29:29;;;;;;;10.25;4.07;;;0.20;83.60;;;;;;4979552;28;87533;-74
2023/01/19 07:31:54;;;;;;;12.20;4.35;;;0.20;83.20;;;;;;4978606;28;88312;-73
2023/01/19 07:34:21;;;;;;;8.77;3.42;;;0.20;83.40;;;;;;4978115;28;86794;-73
2023/01/19 07:36:47;;;;;;;9.85;4.35;;;0.20;83.20;;;;;;4974560;28;87367;-73
2023/01/19 07:39:13;;;;;;;10.90;4.22;;;0.20;82.90;;;;;;4977209;28;87673;-73
2023/01/19 07:41:38;;;;;;;10.10;4.15;;;0.20;82.80;;;;;;4978377;28;89203;-72
2023/01/19 07:44:04;;;;;;;9.73;3.78;;;0.30;83.20;;;;;;4966395;28;87788;-71
2023/01/19 07:46:29;;;;;;;14.35;3.92;;;0.30;82.40;;;;;;4974189;28;87473;-72
2023/01/19 07:48:55;;;;;;;8.98;4.07;;;0.40;82.00;;;;;;4979574;28;87430;-72
2023/01/19 07:51:21;;;;;;;8.73;3.72;;;0.40;81.80;;;;;;4979473;28;88139;-73
2023/01/19 07:53:49;;;;;;;12.13;4.78;;;0.50;81.20;;;;;;4973582;28;87769;-73
2023/01/19 07:56:14;;;;;;;9.98;4.57;;;0.60;81.20;;;;;;4969496;28;87327;-74
2023/01/19 07:58:40;;;;;;;14.13;4.97;;;0.70;81.20;;;;;;4965937;28;86721;-72
2023/01/19 08:01:11;;;;;;;12.52;5.63;;;0.80;80.70;;;;;;4977527;28;88053;-72
2023/01/19 08:03:37;;;;;;;13.43;4.93;;;0.90;80.60;;;;;;4978882;28;87448;-72
2023/01/19 08:06:04;;;;;;;12.50;4.60;;;1.00;79.90;;;;;;4995866;28;88448;-72
2023/01/19 08:08:31;;;;;;;11.98;4.97;;;1.10;77.60;;;;;;4981410;28;87457;-72
2023/01/19 08:10:57;;;;;;;14.77;5.40;;;1.30;79.00;;;;;;4972032;28;88730;-73
2023/01/19 08:13:23;;;;;;;12.35;5.35;;;1.40;78.70;;;;;;4973965;28;87736;-73
2023/01/19 08:15:52;;;;;;;12.18;4.97;;;1.50;77.70;;;;;;4967927;28;89035;-72
2023/01/19 08:18:19;;;;;;;11.77;4.80;;;1.60;76.50;;;;;;4979916;28;87510;-72
2023/01/19 08:20:45;;;;;;;10.55;4.65;;;1.80;76.80;;;;;;4991853;28;88213;-72
2023/01/19 08:23:11;;;;;;;13.23;4.88;;;1.90;75.70;;;;;;4988013;28;87349;-71
2023/01/19 08:25:41;;;;;;;11.55;4.10;;;2.10;74.80;;;;;;4981534;28;87486;-71
2023/01/19 08:28:07;;;;;;;10.65;4.38;;;2.30;74.00;;;;;;4972366;28;87118;-72
2023/01/19 08:30:34;;;;;;;9.65;4.43;;;2.50;73.20;;;;;;4966676;28;88354;-73
2023/01/19 08:33:02;;;;;;;12.70;4.45;;;2.70;73.20;;;;;;4984297;28;89214;-72
2023/01/19 08:35:30;;;;;;;9.23;3.67;;;2.80;71.90;;;;;;4967906;28;87258;-72
2023/01/19 08:37:59;;;;;;;9.45;3.78;;;2.80;73.10;;;;;;4966628;28;88105;-72
2023/01/19 08:40:33;;;;;;;7.80;3.30;;;3.00;72.60;;;;;;4968965;28;89156;-72
2023/01/19 08:43:02;;;;;;;11.27;3.70;;;3.30;71.60;;;;;;4974964;28;87755;-72
2023/01/19 08:45:29;;;;;;;12.18;4.90;;;3.30;71.10;;;;;;4975120;28;87725;-72
2023/01/19 08:47:57;;;;;;;12.48;5.07;;;3.40;72.50;;;;;;4972776;28;86446;-72
2023/01/19 08:50:25;;;;;;;12.43;5.28;;;3.60;72.10;;;;;;4966714;28;88631;-72
2023/01/19 08:52:51;;;;;;;11.27;5.35;;;4.00;71.40;;;;;;4977620;28;88459;-72
2023/01/19 08:55:16;;;;;;;12.85;5.50;;;4.40;71.10;;;;;;4980935;28;88032;-72
2023/01/19 08:57:42;;;;;;;11.38;4.78;;;4.60;69.30;;;;;;4976365;28;87532;-72
2023/01/19 09:00:09;;;;;;;10.68;4.50;;;4.70;68.20;;;;;;4966804;28;87845;-72
2023/01/19 09:02:35;;;;;;;10.30;4.78;;;4.80;68.40;;;;;;4981098;28;87628;-71
2023/01/19 09:05:03;;;;;;;10.60;4.85;;;5.10;67.80;;;;;;4980649;28;87372;-72
2023/01/19 09:07:29;;;;;;;11.10;4.88;;;5.40;67.10;;;;;;4975219;28;87480;-72
2023/01/19 09:09:55;;;;;;;8.80;4.40;;;5.60;65.80;;;;;;4969737;28;87737;-72
2023/01/19 09:12:21;;;;;;;8.57;4.57;;;5.50;66.00;;;;;;4968545;28;88451;-73
2023/01/19 09:14:47;;;;;;;10.73;5.10;;;5.40;65.40;;;;;;4972922;28;87968;-72
2023/01/19 09:17:13;;;;;;;12.98;5.43;;;5.30;66.10;;;;;;4975522;28;87740;-72
2023/01/19 09:19:40;;;;;;;14.35;6.50;;;5.20;66.70;;;;;;4964447;28;90452;-72
2023/01/19 09:22:05;;;;;;;15.43;5.60;;;5.10;64.90;;;;;;4979678;28;89237;-72
2023/01/19 09:24:32;;;;;;;12.48;5.32;;;5.00;65.70;;;;;;4969485;28;87453;-73
2023/01/19 09:26:57;;;;;;;12.63;5.35;;;5.00;66.50;;;;;;4973326;28;87358;-71
2023/01/19 09:29:23;;;;;;;8.65;4.10;;;5.00;66.00;;;;;;4977499;28;88061;-72
2023/01/19 09:31:49;;;;;;;8.80;4.38;;;4.90;65.20;;;;;;4966925;28;87684;-72
2023/01/19 09:34:14;;;;;;;9.55;4.07;;;4.80;64.80;;;;;;4977299;28;87295;-73
2023/01/19 09:36:40;;;;;;;10.68;3.72;;;4.70;64.60;;;;;;4977105;28;86723;-72
2023/01/19 09:39:06;;;;;;;11.50;4.40;;;4.60;65.20;;;;;;4969785;28;92568;-72
2023/01/19 09:41:35;;;;;;;13.02;3.50;;;4.60;66.00;;;;;;4969959;28;87277;-72
2023/01/19 09:44:00;;;;;;;8.88;3.65;;;4.50;64.80;;;;;;4972024;28;88326;-72
2023/01/19 09:46:38;;;;;;;10.30;3.85;;;4.50;65.10;;;;;;4974490;28;87208;-72
2023/01/19 09:49:16;;;;;;;7.85;3.78;;;4.60;65.50;;;;;;4966638;28;88759;-73
2023/01/19 09:51:48;;;;;;;7.20;3.10;;;4.60;64.50;;;;;;4966206;28;87736;-72
2023/01/19 09:54:15;;;;;;;10.95;3.55;;;4.70;64.70;;;;;;4974374;28;88701;-72
2023/01/19 09:56:46;;;;;;;8.32;3.65;;;4.90;64.60;;;;;;4980780;28;87500;-73
2023/01/19 09:59:32;;;;;;;6.40;3.35;;;5.10;64.00;;;;;;4972296;28;88790;-76
2023/01/19 10:02:33;;;;;;;8.15;3.17;;;5.10;63.60;;;;;;4962401;28;87872;-72
2023/01/19 10:04:59;;;;;;;10.65;3.67;;;5.30;63.40;;;;;;4962274;28;87709;-73
2023/01/19 10:07:53;;;;;;;8.10;3.42;;;5.30;62.90;;;;;;4965194;28;88114;-72
2023/01/19 10:10:25;;;;;;;9.55;3.90;;;5.50;61.60;;;;;;4962185;28;89814;-72
2023/01/19 10:12:51;;;;;;;17.08;3.33;;;5.40;61.50;;;;;;4964750;28;88784;-72
2023/01/19 10:15:34;;;;;;;8.93;4.05;;;5.60;62.30;;;;;;4966598;28;87850;-73
2023/01/19 10:18:29;;;;;;;10.80;3.80;;;5.70;60.70;;;;;;4969461;28;88427;-71
2023/01/19 10:21:00;;;;;;;6.80;2.50;;;5.60;60.90;;;;;;4972492;28;88988;-73
2023/01/19 10:23:56;;;;;;;14.48;3.95;;;5.40;61.50;;;;;;4965562;28;89392;-72
2023/01/19 10:26:25;;;;;;;11.70;3.47;;;5.10;61.60;;;;;;4962873;28;87815;-71
2023/01/19 10:28:55;;;;;;;11.52;3.70;;;4.80;63.40;;;;;;4963329;28;88722;-73
2023/01/19 10:31:23;;;;;;;9.48;3.03;;;4.90;62.30;;;;;;4965024;28;88631;-71
2023/01/19 10:33:49;;;;;;;7.38;3.22;;;4.90;62.20;;;;;;4967393;28;89309;-72
2023/01/19 10:36:36;;;;;;;9.50;3.22;;;5.00;61.40;;;;;;4974762;28;88412;-71
2023/01/19 10:39:05;;;;;;;7.80;3.13;;;4.90;61.70;;;;;;4977662;28;87388;-72
2023/01/19 10:41:40;;;;;;;7.45;3.20;;;4.70;61.20;;;;;;4970459;28;89163;-71
2023/01/19 10:44:08;;;;;;;8.77;2.50;;;4.50;62.10;;;;;;4969779;28;89802;-71
2023/01/19 10:46:43;;;;;;;7.53;2.75;;;4.50;61.20;;;;;;4971180;28;88998;-72
2023/01/19 10:49:30;;;;;;;6.57;3.28;;;4.70;61.10;;;;;;4962487;28;88034;-72
2023/01/19 10:51:57;;;;;;;6.72;3.50;;;4.70;60.70;;;;;;4962048;28;89584;-72
2023/01/19 10:54:26;;;;;;;6.18;2.72;;;4.90;61.20;;;;;;4962583;28;88212;-72
2023/01/19 10:56:55;;;;;;;10.85;2.70;;;4.90;59.90;;;;;;4959735;28;89847;-72
2023/01/19 10:59:38;;;;;;;9.20;2.40;;;4.70;60.10;;;;;;4961621;28;88866;-71
2023/01/19 11:02:16;;;;;;;8.07;2.47;;;4.60;61.00;;;;;;4969349;28;89716;-71
2023/01/19 11:04:44;;;;;;;7.72;2.80;;;4.70;59.20;;;;;;4969841;28;87511;-71
2023/01/19 11:07:28;;;;;;;10.02;2.53;;;4.70;59.50;;;;;;4967416;28;88840;-72
2023/01/19 11:10:22;;;;;;;12.00;2.70;;;4.80;60.10;;;;;;4972751;28;88862;-72
2023/01/19 11:12:54;;;;;;;6.80;2.85;;;4.90;60.60;;;;;;4964034;28;88217;-72
2023/01/19 11:15:33;;;;;;;6.80;3.15;;;5.00;58.40;;;;;;4961346;28;88391;-72
2023/01/19 11:18:00;;;;;;;6.53;3.00;;;4.70;59.00;;;;;;4973476;28;87782;-72
2023/01/19 11:20:34;;;;;;;9.02;2.83;;;4.70;59.70;;;;;;4966377;28;86774;-72
2023/01/19 11:23:13;;;;;;;7.22;2.75;;;4.70;60.90;;;;;;4969712;28;88467;-72
2023/01/19 11:25:39;;;;;;;10.23;2.95;;;4.70;59.40;;;;;;4960999;28;88221;-73
2023/01/19 11:28:12;;;;;;;9.85;3.13;;;4.80;61.10;;;;;;4965264;28;88268;-71
2023/01/19 11:30:58;;;;;;;10.48;3.20;;;4.70;61.30;;;;;;4963653;28;87180;-71
2023/01/19 11:33:46;;;;;;;7.63;2.97;;;4.60;59.60;;;;;;4962764;28;87479;-72
2023/01/19 11:36:15;;;;;;;7.13;2.85;;;4.70;60.60;;;;;;4968503;28;88749;-72
2023/01/19 11:38:45;;;;;;;9.45;3.65;;;4.70;59.40;;;;;;4963455;28;87912;-72
2023/01/19 11:41:17;;;;;;;9.13;3.20;;;4.50;60.60;;;;;;4965576;28;88225;-72
2023/01/19 11:43:43;;;;;;;11.18;3.45;;;4.40;60.90;;;;;;4955409;28;89945;-72
2023/01/19 11:46:12;;;;;;;7.82;3.38;;;4.30;60.90;;;;;;4967775;28;88684;-71
2023/01/19 11:48:43;;;;;;;6.97;2.85;;;4.30;61.50;;;;;;4970388;28;88263;-71
2023/01/19 11:51:21;;;;;;;7.30;3.08;;;4.20;61.40;;;;;;4962443;28;87599;-72
2023/01/19 11:53:51;;;;;;;10.02;3.72;;;4.10;61.80;;;;;;4953852;28;91230;-72
2023/01/19 11:56:22;;;;;;;9.13;3.45;;;4.10;62.00;;;;;;4954195;28;90012;-70
2023/01/19 11:58:48;;;;;;;7.07;3.28;;;4.10;61.50;;;;;;4956955;28;88761;-70
2023/01/19 12:01:37;;;;;;;9.65;4.07;;;4.20;61.60;;;;;;4966738;28;88363;-71
2023/01/19 12:04:39;;;;;;;9.40;3.47;;;4.20;63.20;;;;;;4967252;28;88559;-72
2023/01/19 12:07:09;;;;;;;7.90;2.92;;;4.40;60.90;;;;;;4971830;28;89672;-71
2023/01/19 12:09:43;;;;;;;6.40;2.90;;;4.40;60.70;;;;;;4967406;28;88275;-72
2023/01/19 12:12:30;;;;;;;6.40;2.60;;;4.40;60.50;;;;;;4969140;28;86864;-72
2023/01/19 12:15:20;;;;;;;7.97;2.70;;;4.50;59.80;;;;;;4957259;28;88528;-70
2023/01/19 12:17:50;;;;;;;9.57;2.85;;;4.40;60.20;;;;;;4969230;28;88705;-71
2023/01/19 12:20:39;;;;;;;5.95;2.17;;;4.40;59.50;;;;;;4976147;28;88388;-70
2023/01/19 12:23:19;;;;;;;6.82;2.78;;;4.20;58.70;;;;;;4990211;28;87299;-71
2023/01/19 12:26:03;;;;;;;7.45;3.20;;;4.20;59.30;;;;;;4969253;28;88655;-70
2023/01/19 12:28:32;;;;;;;6.35;2.53;;;4.20;59.90;;;;;;4975337;28;87620;-70
2023/01/19 12:30:59;;;;;;;7.82;2.55;;;4.20;59.80;;;;;;4969673;28;89107;-71
2023/01/19 12:33:25;;;;;;;6.72;2.70;;;4.30;59.80;;;;;;4977381;28;87582;-71
2023/01/19 12:35:55;;;;;;;5.82;2.58;;;4.40;60.70;;;;;;4978300;28;88181;-71
2023/01/19 12:38:41;;;;;;;7.53;3.47;;;4.40;60.20;;;;;;4974130;28;87275;-70
2023/01/19 12:41:28;;;;;;;8.38;2.30;;;4.50;59.10;;;;;;4976253;28;87126;-70
2023/01/19 12:44:14;;;;;;;5.70;2.30;;;4.50;59.40;;;;;;4976342;28;87387;-71
2023/01/19 12:46:40;;;;;;;5.60;2.40;;;4.50;59.70;;;;;;4969901;28;88440;-71
2023/01/19 12:49:27;;;;;;;6.75;2.85;;;4.50;59.00;;;;;;4979287;28;88840;-70
2023/01/19 12:52:21;;;;;;;5.28;2.15;;;4.50;59.10;;;;;;4976555;28;88870;-71
2023/01/19 12:55:12;;;;;;;5.82;2.30;;;4.50;57.20;;;;;;4963285;28;87442;-71
2023/01/19 12:58:05;;;;;;;7.40;2.20;;;4.50;58.70;;;;;;4963023;28;88083;-71
2023/01/19 13:00:38;;;;;;;9.25;2.35;;;4.60;58.80;;;;;;4977801;28;87990;-71
2023/01/19 13:03:16;;;;;;;5.05;2.30;;;4.60;58.40;;;;;;4977739;28;87547;-71
2023/01/19 13:05:42;;;;;;;5.38;2.45;;;4.60;57.80;;;;;;4988190;28;86853;-71
2023/01/19 13:08:07;;;;;;;5.93;2.65;;;4.60;59.40;;;;;;4990632;28;87612;-71
2023/01/19 13:10:58;;;;;;;6.18;2.70;;;4.80;58.90;;;;;;4977993;28;87888;-71
2023/01/19 13:13:23;;;;;;;7.38;3.20;;;4.80;58.30;;;;;;4987647;28;88399;-70
2023/01/19 13:15:50;;;;;;;6.32;2.50;;;4.90;57.90;;;;;;4979060;28;87844;-70